createdAt,value
2024-02-06T00:00:48.438Z,18.73
2024-02-06T00:05:51.665Z,21.35
2024-02-06T00:10:54.937Z,18.90
2024-02-06T00:15:59.602Z,19.10
2024-02-06T00:21:02.790Z,21.88
2024-02-06T00:26:06.165Z,22.45
2024-02-06T00:31:10.762Z,20.27
2024-02-06T00:36:13.923Z,19.50
2024-02-06T00:41:17.527Z,22.42
2024-02-06T00:46:22.028Z,19.23
2024-02-06T00:51:25.327Z,19.17
2024-02-06T00:56:28.750Z,25.00
2024-02-06T01:01:33.621Z,24.30
2024-02-06T01:06:36.884Z,22.63
2024-02-06T01:11:40.066Z,28.65
2024-02-06T01:16:44.901Z,21.33
2024-02-06T01:21:48.109Z,21.80
2024-02-06T01:26:51.462Z,20.50
2024-02-06T01:31:56.015Z,24.33
2024-02-06T01:36:59.287Z,21.95
2024-02-06T01:42:04.397Z,22.65
2024-02-06T01:47:10.014Z,26.40
2024-02-06T01:52:13.736Z,19.85
2024-02-06T01:57:16.959Z,18.98
2024-02-06T02:02:21.696Z,20.27
2024-02-06T02:07:26.538Z,19.38
2024-02-06T02:12:29.855Z,29.98
2024-02-06T02:17:34.393Z,24.73
2024-02-06T02:22:39.120Z,23.52
2024-02-06T02:27:42.381Z,18.33
2024-02-06T02:32:46.496Z,20.52
2024-02-06T02:37:51.020Z,23.80
2024-02-06T02:42:54.346Z,21.02
2024-02-06T02:47:57.480Z,18.58
2024-02-06T02:53:01.997Z,14.80
2024-02-06T02:58:05.416Z,15.80
2024-02-06T03:03:08.815Z,18.45
2024-02-06T03:08:13.461Z,23.45
2024-02-06T03:13:17.716Z,19.02
2024-02-06T03:18:20.941Z,22.42
2024-02-06T03:23:25.926Z,18.38
2024-02-06T03:28:29.272Z,21.02
2024-02-06T03:33:34.602Z,16.98
2024-02-06T03:38:39.173Z,29.33
2024-02-06T03:43:43.427Z,22.52
2024-02-06T03:48:46.955Z,19.13
2024-02-06T03:53:51.568Z,25.83
2024-02-06T03:58:56.027Z,22.40
2024-02-06T04:03:59.266Z,22.85
2024-02-06T04:09:04.634Z,19.15
2024-02-06T04:14:07.823Z,18.85
2024-02-06T04:19:11.050Z,20.67
2024-02-06T04:24:15.777Z,25.67
2024-02-06T04:29:19.462Z,20.77
2024-02-06T04:34:22.823Z,24.10
2024-02-06T04:39:27.411Z,21.45
2024-02-06T04:44:31.056Z,18.35
2024-02-06T04:49:34.771Z,18.98
2024-02-06T04:54:39.504Z,20.80
2024-02-06T04:59:43.044Z,26.40
2024-02-06T05:04:46.342Z,21.85
2024-02-06T05:09:50.934Z,20.08
2024-02-06T05:14:54.177Z,23.13
2024-02-06T05:19:58.415Z,23.38
2024-02-06T05:25:03.175Z,23.02
2024-02-06T05:30:07.012Z,25.25
2024-02-06T05:35:10.683Z,25.45
2024-02-06T05:40:15.734Z,30.60
2024-02-06T05:45:18.909Z,27.15
2024-02-06T05:50:22.470Z,23.48
2024-02-06T05:55:27.337Z,25.63
2024-02-06T06:00:32.779Z,26.45
2024-02-06T06:05:36.257Z,27.15
2024-02-06T06:10:41.072Z,26.48
2024-02-06T06:15:44.246Z,26.55
2024-02-06T06:20:47.522Z,22.15
2024-02-06T06:25:52.669Z,25.98
2024-02-06T06:30:55.823Z,24.20
2024-02-06T06:35:58.965Z,28.58
2024-02-06T06:41:04.146Z,27.70
2024-02-06T06:46:08.192Z,27.50
2024-02-06T06:51:11.898Z,22.00
2024-02-06T06:56:19.925Z,22.80
2024-02-06T07:01:23.154Z,28.38
2024-02-06T07:06:26.528Z,29.52
2024-02-06T07:11:31.094Z,28.08
2024-02-06T07:16:34.658Z,28.92
2024-02-06T07:21:37.901Z,21.10
2024-02-06T07:26:42.400Z,24.02
2024-02-06T07:31:46.089Z,29.48
2024-02-06T07:36:49.420Z,21.23
2024-02-06T07:41:53.930Z,27.83
2024-02-06T07:46:57.188Z,26.08
2024-02-06T07:52:01.125Z,26.88
2024-02-06T07:57:06.928Z,23.65
2024-02-06T08:02:10.664Z,25.80
2024-02-06T08:07:14.037Z,25.45
2024-02-06T08:12:18.677Z,21.90
2024-02-06T08:17:22.685Z,26.40
2024-02-06T08:22:26.068Z,27.85
2024-02-06T08:27:30.577Z,24.35
2024-02-06T08:32:33.902Z,28.25
2024-02-06T08:37:37.298Z,23.98
2024-02-06T08:42:41.994Z,27.92
2024-02-06T08:47:45.144Z,25.65
2024-02-06T08:52:48.466Z,30.77
2024-02-06T08:57:53.999Z,30.35
2024-02-06T09:02:57.369Z,26.98
2024-02-06T09:08:00.696Z,26.70
2024-02-06T09:13:05.871Z,25.35
2024-02-06T09:18:09.266Z,27.55
2024-02-06T09:23:12.525Z,29.50
2024-02-06T09:28:17.968Z,24.90
2024-02-06T09:33:21.290Z,32.03
2024-02-06T09:38:24.619Z,19.23
2024-02-06T09:43:29.397Z,24.20
2024-02-06T09:48:32.588Z,21.50
2024-02-06T09:53:37.417Z,20.10
2024-02-06T09:58:42.312Z,26.50
2024-02-06T10:03:46.952Z,19.35
2024-02-06T10:08:50.120Z,13.07
2024-02-06T10:13:54.755Z,16.52
2024-02-06T10:18:58.770Z,20.35
2024-02-06T10:24:02.943Z,17.42
2024-02-06T10:29:08.173Z,19.60
2024-02-06T10:34:12.531Z,22.33
2024-02-06T10:39:15.996Z,23.80
2024-02-06T10:44:23.939Z,24.48
2024-02-06T10:49:27.401Z,18.95
2024-02-06T10:54:30.749Z,20.65
2024-02-06T10:59:42.128Z,23.05
2024-02-06T11:04:45.422Z,24.30
2024-02-06T11:09:48.759Z,19.05
2024-02-06T11:14:53.634Z,24.73
2024-02-06T11:20:01.018Z,22.58
2024-02-06T11:25:05.070Z,19.95
2024-02-06T11:30:10.832Z,22.02
2024-02-06T11:35:14.113Z,14.40
2024-02-06T11:40:17.417Z,19.15
2024-02-06T11:45:21.988Z,20.80
2024-02-06T11:50:31.798Z,18.95
2024-02-06T11:55:37.156Z,17.63
2024-02-06T12:00:42.416Z,12.73
2024-02-06T12:05:47.194Z,16.58
2024-02-06T12:10:51.203Z,15.57
2024-02-06T12:15:55.791Z,11.43
2024-02-06T12:20:59.119Z,11.80
2024-02-06T12:26:02.813Z,14.35
2024-02-06T12:31:07.418Z,19.90
2024-02-06T12:36:11.809Z,15.77
2024-02-06T12:41:16.422Z,17.23
2024-02-06T12:46:21.325Z,16.20
2024-02-06T12:51:24.984Z,23.38
2024-02-06T12:56:28.213Z,15.65
2024-02-06T13:01:32.794Z,13.52
2024-02-06T13:06:39.122Z,17.48
2024-02-06T13:11:42.364Z,16.73
2024-02-06T13:16:50.939Z,20.45
2024-02-06T13:21:54.359Z,19.35
2024-02-06T13:26:57.793Z,15.90
2024-02-06T13:32:02.460Z,16.80
2024-02-06T13:37:06.318Z,16.25
2024-02-06T13:42:09.537Z,12.55
2024-02-06T13:47:14.090Z,29.40
2024-02-06T13:52:17.293Z,20.88
2024-02-06T13:57:20.497Z,22.80
2024-02-06T14:02:25.056Z,19.20
2024-02-06T14:07:28.447Z,17.65
2024-02-06T14:12:40.184Z,18.77
2024-02-06T14:17:49.492Z,24.58
2024-02-06T14:22:53.317Z,23.40
2024-02-06T14:27:56.482Z,26.23
2024-02-06T14:33:02.541Z,17.73
2024-02-06T14:38:05.829Z,21.17
2024-02-06T14:43:09.154Z,19.95
2024-02-06T14:48:13.846Z,24.02
2024-02-06T14:53:17.106Z,13.93
2024-02-06T14:58:20.228Z,19.20
2024-02-06T15:03:25.093Z,16.00
2024-02-06T15:08:28.312Z,17.77
2024-02-06T15:13:31.762Z,18.58
2024-02-06T15:18:36.603Z,21.50
2024-02-06T15:23:40.023Z,19.88
2024-02-06T15:28:43.604Z,18.05
2024-02-06T15:33:48.337Z,23.05
2024-02-06T15:38:55.165Z,16.60
2024-02-06T15:43:58.476Z,16.30
2024-02-06T15:49:03.117Z,19.50
2024-02-06T15:54:08.164Z,18.23
2024-02-06T15:59:11.544Z,23.10
2024-02-06T16:04:16.871Z,22.45
2024-02-06T16:09:20.096Z,23.85
2024-02-06T16:14:23.295Z,23.48
2024-02-06T16:19:31.808Z,27.33
2024-02-06T16:24:36.526Z,22.55
2024-02-06T16:29:39.699Z,26.30
2024-02-06T16:34:49.143Z,25.90
2024-02-06T16:39:57.052Z,28.05
2024-02-06T16:45:01.505Z,30.38
2024-02-06T16:50:07.006Z,28.52
2024-02-06T16:55:10.636Z,31.30
2024-02-06T17:00:14.523Z,32.17
2024-02-06T17:05:23.393Z,39.05
2024-02-06T17:10:27.183Z,25.15
2024-02-06T17:15:30.304Z,30.30
2024-02-06T17:20:34.941Z,37.15
2024-02-06T17:25:38.353Z,37.45
2024-02-06T17:30:41.515Z,33.88
2024-02-06T17:35:46.628Z,32.72
2024-02-06T17:40:50.005Z,26.88
2024-02-06T17:45:53.282Z,29.25
2024-02-06T17:50:59.218Z,26.38
2024-02-06T17:56:02.718Z,32.05
2024-02-06T18:01:06.724Z,34.70
2024-02-06T18:06:11.421Z,23.25
2024-02-06T18:11:14.610Z,25.10
2024-02-06T18:16:17.809Z,26.00
2024-02-06T18:21:22.373Z,30.92
2024-02-06T18:26:25.610Z,26.90
2024-02-06T18:31:28.916Z,29.60
2024-02-06T18:36:33.543Z,21.67
2024-02-06T18:41:38.674Z,28.67
2024-02-06T18:46:42.334Z,31.20
2024-02-06T18:51:46.924Z,29.40
2024-02-06T18:56:50.141Z,26.80
2024-02-06T19:01:53.447Z,37.47
2024-02-06T19:06:58.483Z,32.05
2024-02-06T19:12:01.760Z,29.48
2024-02-06T19:17:04.959Z,34.35
2024-02-06T19:22:09.789Z,37.83
2024-02-06T19:27:12.983Z,36.25
2024-02-06T19:32:16.180Z,25.80
2024-02-06T19:37:20.834Z,31.33
2024-02-06T19:42:24.022Z,27.50
2024-02-06T19:47:27.155Z,29.27
2024-02-06T19:52:31.816Z,33.65
2024-02-06T19:57:35.836Z,29.17
2024-02-06T20:02:39.158Z,26.55
2024-02-06T20:07:43.717Z,25.73
2024-02-06T20:12:47.071Z,31.73
2024-02-06T20:17:50.216Z,30.98
2024-02-06T20:22:56.346Z,28.17
2024-02-06T20:27:59.585Z,31.55
2024-02-06T20:33:03.835Z,31.23
2024-02-06T20:38:08.514Z,29.92
2024-02-06T20:43:11.861Z,25.10
2024-02-06T20:48:17.415Z,23.17
2024-02-06T20:53:22.218Z,26.90
2024-02-06T20:58:25.492Z,25.15
2024-02-06T21:03:29.029Z,24.50
2024-02-06T21:08:33.625Z,25.83
2024-02-06T21:13:36.880Z,25.45
2024-02-06T21:18:39.992Z,26.13
2024-02-06T21:23:44.514Z,24.17
2024-02-06T21:28:48.030Z,20.63
2024-02-06T21:33:51.269Z,20.38
2024-02-06T21:38:56.429Z,28.25
2024-02-06T21:43:59.675Z,17.48
2024-02-06T21:49:03.835Z,32.15
2024-02-06T21:54:09.246Z,25.30
2024-02-06T21:59:15.196Z,24.27
2024-02-06T22:04:18.445Z,21.00
2024-02-06T22:09:23.047Z,29.08
2024-02-06T22:14:27.431Z,24.40
2024-02-06T22:19:32.044Z,25.20
2024-02-06T22:24:43.848Z,30.00
2024-02-06T22:29:47.037Z,23.17
2024-02-06T22:34:50.179Z,23.63
2024-02-06T22:39:54.763Z,22.30
2024-02-06T22:44:58.072Z,25.88
2024-02-06T22:50:01.282Z,18.20
2024-02-06T22:55:06.420Z,17.20
2024-02-06T23:00:12.402Z,17.05
2024-02-06T23:05:15.637Z,18.33
2024-02-06T23:10:21.548Z,15.25
2024-02-06T23:15:24.732Z,24.80
2024-02-06T23:20:29.277Z,19.55
2024-02-06T23:25:33.917Z,7.93
2024-02-06T23:30:37.389Z,5.10
2024-02-06T23:35:40.551Z,6.65
2024-02-06T23:40:45.277Z,4.18
2024-02-06T23:45:48.524Z,7.45
2024-02-06T23:50:51.767Z,9.25
2024-02-06T23:55:56.341Z,7.93
